createdAt,value
2023-04-14T00:01:18.130Z,24.45
2023-04-14T00:03:46.987Z,24.23
2023-04-14T00:06:15.865Z,24.85
2023-04-14T00:08:44.420Z,24.73
2023-04-14T00:11:13.143Z,25.15
2023-04-14T00:13:41.543Z,25.85
2023-04-14T00:16:12.741Z,29.20
2023-04-14T00:18:41.468Z,29.95
2023-04-14T00:21:09.996Z,28.33
2023-04-14T00:23:40.814Z,25.48
2023-04-14T00:26:09.406Z,25.37
2023-04-14T00:28:38.953Z,26.65
2023-04-14T00:31:08.464Z,27.02
2023-04-14T00:33:36.658Z,27.52
2023-04-14T00:36:05.786Z,26.73
2023-04-14T00:38:34.014Z,27.00
2023-04-14T00:41:03.394Z,27.58
2023-04-14T00:43:31.749Z,27.92
2023-04-14T00:46:00.871Z,26.90
2023-04-14T00:48:29.802Z,25.83
2023-04-14T00:50:59.381Z,27.80
2023-04-14T00:53:28.066Z,25.65
2023-04-14T00:55:56.963Z,26.70
2023-04-14T00:58:25.760Z,25.90
2023-04-14T01:00:55.862Z,25.80
2023-04-14T01:03:26.997Z,25.40
2023-04-14T01:05:56.525Z,25.67
2023-04-14T01:08:25.970Z,25.55
2023-04-14T01:11:31.593Z,25.17
2023-04-14T01:14:11.909Z,23.63
2023-04-14T01:16:45.555Z,25.10
2023-04-14T01:19:41.435Z,25.67
2023-04-14T01:22:18.857Z,24.88
2023-04-14T01:25:06.338Z,25.00
2023-04-14T01:27:49.847Z,25.63
2023-04-14T01:30:42.480Z,23.60
2023-04-14T01:33:16.990Z,23.50
2023-04-14T01:35:53.472Z,23.58
2023-04-14T01:38:38.118Z,23.08
2023-04-14T01:41:09.329Z,22.52
2023-04-14T01:43:42.865Z,23.70
2023-04-14T01:46:14.600Z,22.88
2023-04-14T01:48:44.216Z,23.63
2023-04-14T01:51:14.078Z,23.35
2023-04-14T01:53:45.823Z,23.17
2023-04-14T01:56:17.416Z,23.42
2023-04-14T01:58:48.580Z,23.30
2023-04-14T02:01:18.085Z,22.42
2023-04-14T02:03:49.533Z,23.63
2023-04-14T02:06:20.087Z,22.67
2023-04-14T02:08:49.236Z,23.30
2023-04-14T02:11:19.383Z,23.58
2023-04-14T02:13:49.756Z,22.92
2023-04-14T02:16:18.871Z,22.98
2023-04-14T02:18:49.482Z,22.75
2023-04-14T02:21:20.815Z,23.45
2023-04-14T02:23:49.498Z,23.73
2023-04-14T02:26:23.485Z,23.35
2023-04-14T02:29:13.862Z,23.17
2023-04-14T02:32:01.071Z,24.05
2023-04-14T02:34:38.417Z,23.45
2023-04-14T02:37:18.320Z,23.60
2023-04-14T02:39:57.001Z,23.05
2023-04-14T02:42:28.743Z,23.52
2023-04-14T02:45:03.639Z,23.00
2023-04-14T02:47:37.324Z,23.00
2023-04-14T02:50:10.111Z,23.70
2023-04-14T02:52:41.046Z,23.27
2023-04-14T02:55:12.054Z,24.25
2023-04-14T02:57:41.117Z,23.73
2023-04-14T03:00:13.199Z,23.15
2023-04-14T03:02:47.689Z,23.88
2023-04-14T03:05:17.064Z,23.25
2023-04-14T03:07:55.295Z,22.80
2023-04-14T03:10:25.668Z,23.23
2023-04-14T03:12:56.290Z,22.88
2023-04-14T03:15:27.217Z,23.88
2023-04-14T03:17:57.767Z,22.80
2023-04-14T03:20:29.164Z,23.02
2023-04-14T03:23:05.478Z,22.65
2023-04-14T03:25:42.050Z,21.67
2023-04-14T03:28:20.021Z,23.42
2023-04-14T03:30:54.293Z,23.45
2023-04-14T03:33:28.372Z,22.40
2023-04-14T03:36:00.723Z,22.90
2023-04-14T03:38:33.380Z,23.27
2023-04-14T03:41:07.580Z,22.58
2023-04-14T03:43:36.403Z,23.25
2023-04-14T03:46:11.309Z,23.55
2023-04-14T03:48:44.323Z,24.45
2023-04-14T03:51:17.512Z,23.70
2023-04-14T03:53:48.357Z,24.63
2023-04-14T03:56:20.247Z,24.42
2023-04-14T03:58:51.673Z,26.80
2023-04-14T04:01:25.942Z,28.02
2023-04-14T04:03:56.266Z,27.25
2023-04-14T04:06:26.847Z,24.92
2023-04-14T04:11:52.673Z,24.33
2023-04-14T04:14:23.351Z,24.60
2023-04-14T04:16:55.193Z,24.92
2023-04-14T04:19:25.430Z,26.77
2023-04-14T04:21:57.682Z,31.00
2023-04-14T04:24:28.941Z,30.75
2023-04-14T04:26:59.624Z,33.58
2023-04-14T04:29:28.824Z,29.92
2023-04-14T04:31:57.798Z,27.33
2023-04-14T04:34:29.091Z,25.35
2023-04-14T04:37:01.753Z,30.48
2023-04-14T04:39:31.136Z,31.52
2023-04-14T04:42:08.158Z,31.40
2023-04-14T04:44:36.752Z,30.35
2023-04-14T04:47:06.620Z,29.65
2023-04-14T04:49:34.971Z,28.98
2023-04-14T04:52:11.179Z,28.25
2023-04-14T04:54:39.464Z,25.75
2023-04-14T04:57:08.109Z,24.90
2023-04-14T04:59:38.041Z,27.80
2023-04-14T05:02:08.197Z,27.80
2023-04-14T05:04:36.746Z,25.25
2023-04-14T05:07:05.524Z,25.63
2023-04-14T05:09:33.701Z,25.35
2023-04-14T05:12:02.556Z,25.75
2023-04-14T05:14:31.036Z,24.67
2023-04-14T05:17:00.219Z,21.77
2023-04-14T05:19:28.591Z,23.27
2023-04-14T05:21:57.636Z,21.95
2023-04-14T05:24:26.157Z,22.70
2023-04-14T05:27:12.422Z,24.55
2023-04-14T05:29:43.088Z,23.67
2023-04-14T05:32:13.165Z,22.23
2023-04-14T05:34:42.083Z,22.77
2023-04-14T05:37:10.962Z,21.60
2023-04-14T05:39:39.217Z,22.58
2023-04-14T05:42:07.939Z,23.17
2023-04-14T05:44:36.654Z,23.48
2023-04-14T05:47:05.990Z,21.40
2023-04-14T05:49:34.576Z,24.40
2023-04-14T05:52:03.338Z,21.05
2023-04-14T05:54:31.599Z,23.25
2023-04-14T05:57:01.064Z,20.05
2023-04-14T05:59:29.616Z,19.40
2023-04-14T06:01:58.232Z,20.40
2023-04-14T06:04:26.636Z,21.08
2023-04-14T06:06:55.275Z,19.23
2023-04-14T06:09:23.756Z,19.13
2023-04-14T06:11:52.285Z,19.13
2023-04-14T06:14:20.675Z,21.92
2023-04-14T06:16:51.048Z,20.77
2023-04-14T06:19:19.528Z,19.45
2023-04-14T06:21:48.191Z,20.35
2023-04-14T06:24:16.466Z,20.35
2023-04-14T06:26:45.707Z,19.63
2023-04-14T06:29:14.415Z,19.48
2023-04-14T06:31:43.623Z,18.15
2023-04-14T06:34:12.315Z,22.40
2023-04-14T06:36:41.278Z,17.63
2023-04-14T06:42:29.048Z,14.93
2023-04-14T06:44:58.401Z,15.98
2023-04-14T06:47:27.140Z,17.50
2023-04-14T06:49:55.395Z,14.60
2023-04-14T06:52:24.080Z,14.90
2023-04-14T06:54:52.476Z,14.45
2023-04-14T06:57:21.186Z,14.75
2023-04-14T06:59:49.576Z,14.57
2023-04-14T07:02:18.273Z,14.93
2023-04-14T07:04:46.936Z,15.10
2023-04-14T07:07:15.558Z,14.77
2023-04-14T07:09:44.299Z,14.52
2023-04-14T07:12:17.399Z,14.48
2023-04-14T07:14:52.096Z,14.32
2023-04-14T07:17:21.069Z,14.20
2023-04-14T07:19:49.634Z,14.63
2023-04-14T07:22:18.218Z,14.48
2023-04-14T07:24:46.727Z,15.25
2023-04-14T07:27:16.017Z,14.55
2023-04-14T07:29:44.378Z,14.30
2023-04-14T07:32:13.558Z,14.30
2023-04-14T07:34:44.061Z,14.75
2023-04-14T07:37:12.978Z,15.73
2023-04-14T07:39:41.691Z,14.80
2023-04-14T07:42:10.303Z,14.75
2023-04-14T07:44:38.664Z,15.75
2023-04-14T07:47:07.385Z,14.80
2023-04-14T07:49:36.785Z,16.35
2023-04-14T07:52:06.072Z,17.25
2023-04-14T07:54:34.913Z,14.73
2023-04-14T07:57:03.601Z,14.57
2023-04-14T07:59:32.088Z,14.68
2023-04-14T08:02:00.942Z,14.93
2023-04-14T08:04:29.233Z,14.18
2023-04-14T08:06:58.084Z,14.38
2023-04-14T08:09:26.503Z,14.18
2023-04-14T08:11:56.991Z,13.48
2023-04-14T08:14:25.603Z,13.10
2023-04-14T08:16:54.272Z,13.30
2023-04-14T08:19:22.576Z,12.82
2023-04-14T08:21:52.310Z,12.77
2023-04-14T08:24:20.730Z,12.45
2023-04-14T08:26:49.335Z,13.02
2023-04-14T08:29:17.531Z,13.20
2023-04-14T08:31:46.576Z,12.82
2023-04-14T08:34:15.715Z,12.50
2023-04-14T08:36:52.437Z,12.70
2023-04-14T08:39:21.322Z,11.98
2023-04-14T08:41:52.816Z,11.98
2023-04-14T08:44:22.168Z,11.90
2023-04-14T08:46:55.938Z,11.63
2023-04-14T08:49:42.831Z,11.27
2023-04-14T08:52:12.703Z,11.60
2023-04-14T08:54:42.151Z,11.50
2023-04-14T08:57:12.674Z,11.23
2023-04-14T08:59:42.068Z,11.35
2023-04-14T09:02:12.027Z,10.57
2023-04-14T09:04:41.400Z,10.55
2023-04-14T09:07:10.553Z,9.63
2023-04-14T09:09:39.238Z,10.18
2023-04-14T09:12:08.568Z,9.52
2023-04-14T09:14:37.732Z,9.95
2023-04-14T09:17:06.564Z,11.65
2023-04-14T09:19:35.582Z,11.27
2023-04-14T09:22:04.172Z,10.30
2023-04-14T09:24:34.574Z,10.30
2023-04-14T09:27:05.518Z,9.35
2023-04-14T09:29:34.215Z,8.95
2023-04-14T09:32:04.839Z,9.73
2023-04-14T09:34:33.474Z,9.43
2023-04-14T09:37:07.484Z,9.00
2023-04-14T09:39:47.264Z,9.68
2023-04-14T09:42:17.407Z,8.93
2023-04-14T09:45:05.432Z,9.30
2023-04-14T09:47:34.175Z,8.98
2023-04-14T09:50:04.647Z,9.25
2023-04-14T09:52:41.356Z,8.98
2023-04-14T09:55:14.571Z,9.40
2023-04-14T09:57:44.741Z,8.98
2023-04-14T10:00:16.188Z,9.50
2023-04-14T10:02:56.567Z,9.30
2023-04-14T10:05:32.053Z,9.23
2023-04-14T10:08:06.689Z,9.00
2023-04-14T10:10:35.019Z,9.10
2023-04-14T10:13:03.645Z,9.32
2023-04-14T10:15:32.394Z,8.80
2023-04-14T10:18:02.038Z,9.85
2023-04-14T10:20:31.377Z,9.35
2023-04-14T10:23:00.822Z,8.60
2023-04-14T10:25:31.244Z,8.38
2023-04-14T10:28:00.407Z,8.73
2023-04-14T10:30:29.051Z,8.40
2023-04-14T10:32:58.054Z,8.50
2023-04-14T10:35:27.531Z,7.90
2023-04-14T10:37:56.044Z,8.60
2023-04-14T10:40:24.318Z,9.50
2023-04-14T10:42:54.653Z,8.50
2023-04-14T10:45:23.472Z,9.38
2023-04-14T10:47:52.468Z,8.13
2023-04-14T10:50:25.078Z,7.95
2023-04-14T10:52:59.023Z,7.72
2023-04-14T10:55:28.826Z,7.05
2023-04-14T10:58:06.654Z,9.23
2023-04-14T11:00:39.303Z,8.65
2023-04-14T11:03:12.570Z,7.15
2023-04-14T11:05:44.667Z,6.88
2023-04-14T11:08:34.995Z,6.32
2023-04-14T11:11:05.313Z,6.35
2023-04-14T11:13:35.619Z,6.82
2023-04-14T11:16:05.653Z,8.98
2023-04-14T11:18:38.711Z,12.38
2023-04-14T11:21:14.593Z,7.28
2023-04-14T11:23:43.620Z,7.38
2023-04-14T11:26:14.155Z,7.75
2023-04-14T11:28:45.178Z,9.05
2023-04-14T11:31:15.815Z,7.78
2023-04-14T11:34:02.832Z,9.33
2023-04-14T11:36:32.798Z,9.48
2023-04-14T11:39:02.360Z,10.57
2023-04-14T11:41:30.880Z,9.45
2023-04-14T11:43:59.802Z,14.07
2023-04-14T11:46:28.404Z,10.85
2023-04-14T11:48:58.163Z,21.67
2023-04-14T11:51:30.675Z,11.07
2023-04-14T11:54:03.502Z,11.05
2023-04-14T11:56:32.525Z,6.60
2023-04-14T11:59:03.140Z,6.78
2023-04-14T12:01:32.273Z,6.93
2023-04-14T12:04:01.355Z,8.13
2023-04-14T12:06:36.056Z,7.18
2023-04-14T12:09:09.513Z,6.60
2023-04-14T12:11:38.007Z,7.45
2023-04-14T12:14:07.020Z,8.10
2023-04-14T12:16:35.787Z,8.68
2023-04-14T12:19:04.674Z,7.75
2023-04-14T12:21:33.555Z,7.03
2023-04-14T12:24:02.643Z,8.02
2023-04-14T12:26:31.067Z,6.80
2023-04-14T12:29:00.239Z,7.07
2023-04-14T12:31:32.183Z,8.20
2023-04-14T12:34:02.150Z,7.03
2023-04-14T12:36:47.787Z,10.10
2023-04-14T12:39:18.063Z,9.38
2023-04-14T12:41:47.145Z,7.30
2023-04-14T12:44:24.669Z,7.10
2023-04-14T12:46:53.880Z,7.47
2023-04-14T12:49:34.294Z,7.68
2023-04-14T12:52:08.292Z,6.80
2023-04-14T12:54:51.778Z,7.80
2023-04-14T12:57:23.160Z,10.88
2023-04-14T12:59:52.411Z,8.07
2023-04-14T13:02:21.721Z,7.78
2023-04-14T13:04:50.666Z,6.63
2023-04-14T13:07:19.018Z,7.50
2023-04-14T13:09:48.008Z,6.57
2023-04-14T13:12:16.339Z,7.93
2023-04-14T13:14:45.096Z,8.13
2023-04-14T13:17:13.539Z,12.90
2023-04-14T13:19:51.469Z,13.93
2023-04-14T13:22:21.846Z,9.20
2023-04-14T13:24:50.856Z,10.20
2023-04-14T13:27:20.432Z,8.00
2023-04-14T13:29:48.946Z,11.07
2023-04-14T13:32:17.470Z,10.70
2023-04-14T13:34:46.741Z,7.80
2023-04-14T13:37:15.039Z,8.45
2023-04-14T13:39:51.498Z,7.63
2023-04-14T13:42:19.718Z,8.75
2023-04-14T13:45:13.471Z,8.18
2023-04-14T13:47:42.588Z,8.48
2023-04-14T13:50:12.269Z,9.65
2023-04-14T13:52:41.280Z,9.80
2023-04-14T13:55:10.101Z,7.97
2023-04-14T13:57:38.737Z,7.63
2023-04-14T14:00:24.028Z,7.93
2023-04-14T14:03:17.869Z,8.02
2023-04-14T14:05:46.742Z,7.63
2023-04-14T14:08:16.044Z,7.90
2023-04-14T14:10:45.081Z,8.77
2023-04-14T14:13:14.048Z,7.20
2023-04-14T14:15:43.501Z,9.10
2023-04-14T14:18:11.806Z,9.02
2023-04-14T14:20:40.405Z,9.38
2023-04-14T14:23:08.802Z,8.93
2023-04-14T14:25:37.436Z,9.30
2023-04-14T14:28:06.414Z,13.18
2023-04-14T14:30:38.952Z,9.75
2023-04-14T14:33:07.536Z,7.53
2023-04-14T14:35:36.068Z,12.90
2023-04-14T14:38:04.668Z,6.65
2023-04-14T14:40:33.365Z,7.30
2023-04-14T14:43:01.794Z,8.68
2023-04-14T14:45:32.956Z,7.18
2023-04-14T14:48:01.798Z,7.90
2023-04-14T14:50:30.571Z,8.60
2023-04-14T14:52:58.855Z,7.40
2023-04-14T14:55:27.443Z,7.03
2023-04-14T14:57:55.770Z,6.13
2023-04-14T15:00:25.138Z,5.75
2023-04-14T15:02:53.616Z,7.18
2023-04-14T15:05:22.453Z,4.78
2023-04-14T15:07:51.462Z,5.63
2023-04-14T15:10:20.188Z,4.95
2023-04-14T15:12:48.526Z,7.57
2023-04-14T15:15:19.900Z,5.90
2023-04-14T15:17:48.661Z,7.18
2023-04-14T15:20:17.726Z,9.32
2023-04-14T15:22:46.011Z,6.80
2023-04-14T15:25:14.727Z,7.22
2023-04-14T15:27:43.360Z,7.10
2023-04-14T15:30:12.258Z,19.15
2023-04-14T15:32:40.725Z,7.00
2023-04-14T15:35:09.914Z,17.48
2023-04-14T15:37:38.138Z,9.57
2023-04-14T15:40:09.696Z,10.18
2023-04-14T15:42:38.289Z,6.00
2023-04-14T15:45:07.534Z,5.85
2023-04-14T15:47:36.008Z,14.23
2023-04-14T15:50:09.783Z,7.60
2023-04-14T15:52:40.094Z,9.60
2023-04-14T15:55:10.828Z,26.10
2023-04-14T15:57:39.224Z,19.80
2023-04-14T16:00:08.799Z,7.32
2023-04-14T16:02:46.307Z,5.97
2023-04-14T16:05:15.605Z,7.10
2023-04-14T16:07:45.714Z,6.53
2023-04-14T16:10:14.769Z,7.63
2023-04-14T16:12:43.697Z,5.63
2023-04-14T16:15:12.681Z,7.63
2023-04-14T16:17:42.407Z,7.15
2023-04-14T16:20:12.943Z,7.38
2023-04-14T16:22:41.576Z,7.80
2023-04-14T16:25:10.788Z,8.68
2023-04-14T16:27:39.200Z,7.88
2023-04-14T16:30:09.036Z,7.10
2023-04-14T16:32:37.563Z,6.38
2023-04-14T16:35:06.683Z,7.60
2023-04-14T16:37:35.093Z,6.65
2023-04-14T16:40:03.897Z,5.78
2023-04-14T16:42:32.267Z,5.63
2023-04-14T16:45:01.186Z,5.32
2023-04-14T16:47:33.407Z,5.10
2023-04-14T16:50:02.547Z,5.57
2023-04-14T16:52:31.148Z,5.30
2023-04-14T16:55:01.029Z,5.90
2023-04-14T16:57:29.761Z,5.20
2023-04-14T16:59:58.600Z,6.05
2023-04-14T17:02:26.942Z,3.92
2023-04-14T17:04:58.441Z,5.07
2023-04-14T17:07:52.519Z,5.90
2023-04-14T17:10:46.726Z,7.30
2023-04-14T17:13:15.435Z,13.57
2023-04-14T17:15:44.660Z,5.78
2023-04-14T17:18:13.441Z,20.38
2023-04-14T17:20:42.732Z,11.18
2023-04-14T17:23:11.329Z,7.95
2023-04-14T17:25:40.302Z,8.30
2023-04-14T17:28:09.017Z,8.57
2023-04-14T17:30:37.882Z,7.18
2023-04-14T17:33:07.881Z,7.18
2023-04-14T17:35:37.663Z,6.70
2023-04-14T17:38:10.820Z,6.80
2023-04-14T17:40:39.913Z,7.93
2023-04-14T17:43:08.489Z,11.15
2023-04-14T17:45:39.991Z,8.35
2023-04-14T17:48:09.512Z,10.95
2023-04-14T17:50:38.376Z,12.60
2023-04-14T17:53:07.047Z,11.88
2023-04-14T17:55:37.820Z,8.93
2023-04-14T17:58:06.253Z,10.05
2023-04-14T18:00:35.844Z,9.68
2023-04-14T18:03:04.727Z,10.52
2023-04-14T18:05:33.652Z,11.23
2023-04-14T18:08:01.863Z,10.20
2023-04-14T18:10:30.452Z,9.55
2023-04-14T18:12:58.620Z,11.07
2023-04-14T18:15:27.179Z,11.73
2023-04-14T18:17:55.920Z,9.98
2023-04-14T18:20:27.373Z,11.50
2023-04-14T18:22:57.830Z,12.80
2023-04-14T18:26:26.387Z,12.70
2023-04-14T18:28:18.038Z,12.73
2023-04-14T18:30:54.045Z,11.63
2023-04-14T18:33:22.755Z,12.07
2023-04-14T18:35:53.211Z,11.85
2023-04-14T18:38:22.138Z,13.48
2023-04-14T18:40:51.258Z,15.70
2023-04-14T18:43:19.602Z,15.70
2023-04-14T18:45:49.435Z,17.75
2023-04-14T18:48:18.725Z,14.88
2023-04-14T18:50:47.735Z,13.27
2023-04-14T18:53:16.239Z,13.45
2023-04-14T18:55:45.872Z,13.63
2023-04-14T18:58:15.063Z,15.00
2023-04-14T19:00:45.229Z,15.43
2023-04-14T19:03:14.303Z,12.18
2023-04-14T19:05:43.168Z,14.20
2023-04-14T19:08:11.703Z,12.88
2023-04-14T19:10:40.845Z,11.50
2023-04-14T19:13:11.317Z,14.80
2023-04-14T19:15:39.926Z,15.50
2023-04-14T19:18:09.273Z,12.40
2023-04-14T19:20:38.215Z,11.18
2023-04-14T19:23:32.079Z,11.77
2023-04-14T19:26:01.564Z,12.90
2023-04-14T19:28:29.934Z,11.65
2023-04-14T19:30:58.989Z,11.23
2023-04-14T19:33:27.602Z,12.38
2023-04-14T19:36:00.219Z,12.25
2023-04-14T19:38:28.736Z,14.30
2023-04-14T19:40:57.232Z,11.52
2023-04-14T20:12:18.571Z,9.80
2023-04-14T20:24:36.045Z,11.88
2023-04-14T20:27:09.138Z,11.55
2023-04-14T20:30:30.928Z,10.80
2023-04-14T20:33:04.329Z,10.48
2023-04-14T20:40:18.836Z,12.88
2023-04-14T20:52:30.374Z,12.93
2023-04-14T20:55:51.335Z,16.08
2023-04-14T20:58:19.939Z,17.30
2023-04-14T21:00:52.509Z,14.13
2023-04-14T21:03:21.832Z,12.30
2023-04-14T21:07:05.766Z,13.15
2023-04-14T21:09:55.114Z,13.27
2023-04-14T21:15:42.101Z,12.25
2023-04-14T21:24:09.332Z,12.32
2023-04-14T21:30:47.776Z,12.68
2023-04-14T21:33:18.501Z,12.50
2023-04-14T21:35:48.467Z,11.93
2023-04-14T21:38:19.871Z,12.55
2023-04-14T21:40:48.686Z,12.93
2023-04-14T21:43:17.532Z,12.93
2023-04-14T21:45:46.478Z,12.77
2023-04-14T21:48:19.392Z,12.23
2023-04-14T21:50:48.085Z,13.10
2023-04-14T21:53:17.079Z,12.63
2023-04-14T21:55:46.062Z,13.88
2023-04-14T21:58:14.772Z,13.25
2023-04-14T22:00:43.630Z,14.23
2023-04-14T22:03:13.182Z,13.00
2023-04-14T22:05:42.303Z,13.80
2023-04-14T22:08:12.451Z,15.95
2023-04-14T22:10:43.531Z,16.15
2023-04-14T22:13:12.482Z,15.43
2023-04-14T22:15:43.043Z,14.65
2023-04-14T22:18:11.726Z,13.95
2023-04-14T22:20:40.719Z,13.52
2023-04-14T22:23:13.398Z,13.90
2023-04-14T22:25:45.398Z,13.70
2023-04-14T22:28:17.840Z,13.15
2023-04-14T22:30:47.530Z,13.32
2023-04-14T22:33:17.371Z,13.57
2023-04-14T22:35:46.554Z,14.10
2023-04-14T22:38:14.912Z,13.30
2023-04-14T22:40:43.750Z,13.25
2023-04-14T22:43:12.130Z,13.10
2023-04-14T22:45:51.126Z,14.07
2023-04-14T22:48:19.618Z,13.73
2023-04-14T22:50:48.300Z,14.98
2023-04-14T22:53:16.588Z,20.20
2023-04-14T22:55:45.268Z,20.33
2023-04-14T22:58:17.072Z,20.02
2023-04-14T23:00:46.770Z,16.23
2023-04-14T23:03:15.699Z,13.40
2023-04-14T23:06:37.468Z,13.50
2023-04-14T23:09:05.762Z,13.73
2023-04-14T23:11:34.606Z,13.32
2023-04-14T23:14:03.755Z,13.48
2023-04-14T23:16:32.786Z,12.25
2023-04-14T23:19:01.735Z,12.95
2023-04-14T23:21:30.821Z,14.18
2023-04-14T23:23:59.981Z,13.60
2023-04-14T23:26:29.714Z,12.68
2023-04-14T23:28:59.247Z,13.30
2023-04-14T23:31:53.260Z,13.30
2023-04-14T23:34:22.149Z,12.65
2023-04-14T23:36:52.391Z,13.07
2023-04-14T23:39:21.800Z,13.63
2023-04-14T23:41:50.754Z,14.63
2023-04-14T23:44:19.362Z,13.43
2023-04-14T23:46:48.586Z,13.50
2023-04-14T23:49:28.230Z,13.30
2023-04-14T23:52:04.461Z,13.32
2023-04-14T23:54:33.006Z,13.50
2023-04-14T23:57:02.019Z,13.23
2023-04-14T23:59:30.562Z,13.80
